sensor_id;sensor_type;location;lat;lon;timestamp;pressure;altitude;pressure_sealevel;temperature;humidity
29733;BME280;16643;43.158;25.302;2023-08-06T00:01:16;96737.38;;;23.88;78.37
29733;BME280;16643;43.158;25.302;2023-08-06T00:03:41;96710.63;;;23.74;78.82
29733;BME280;16643;43.158;25.302;2023-08-06T00:06:12;96727.38;;;23.82;78.71
29733;BME280;16643;43.158;25.302;2023-08-06T00:08:38;96732.34;;;23.69;79.74
29733;BME280;16643;43.158;25.302;2023-08-06T00:11:03;96734.75;;;23.46;79.98
29733;BME280;16643;43.158;25.302;2023-08-06T00:13:32;96737.06;;;23.49;80.03
29733;BME280;16643;43.158;25.302;2023-08-06T00:16:11;96726.56;;;23.40;80.43
29733;BME280;16643;43.158;25.302;2023-08-06T00:18:37;96702.72;;;23.06;81.14
29733;BME280;16643;43.158;25.302;2023-08-06T00:21:03;96732.81;;;23.23;81.43
29733;BME280;16643;43.158;25.302;2023-08-06T00:23:29;96661.28;;;22.71;82.10
29733;BME280;16643;43.158;25.302;2023-08-06T00:25:56;96677.81;;;22.65;82.22
29733;BME280;16643;43.158;25.302;2023-08-06T00:28:21;96713.59;;;22.69;81.70
29733;BME280;16643;43.158;25.302;2023-08-06T00:30:53;96712.09;;;22.66;81.66
29733;BME280;16643;43.158;25.302;2023-08-06T00:33:19;96714.38;;;22.61;81.06
29733;BME280;16643;43.158;25.302;2023-08-06T00:35:44;96699.69;;;22.67;81.03
29733;BME280;16643;43.158;25.302;2023-08-06T00:38:10;96735.03;;;22.75;81.25
29733;BME280;16643;43.158;25.302;2023-08-06T00:40:36;96704.78;;;22.34;80.88
29733;BME280;16643;43.158;25.302;2023-08-06T00:43:02;96709.47;;;22.49;80.91
29733;BME280;16643;43.158;25.302;2023-08-06T00:45:28;96742.50;;;22.80;81.16
29733;BME280;16643;43.158;25.302;2023-08-06T00:47:55;96694.53;;;22.39;81.11
29733;BME280;16643;43.158;25.302;2023-08-06T00:50:21;96686.84;;;22.28;80.83
29733;BME280;16643;43.158;25.302;2023-08-06T00:52:51;96686.84;;;22.28;81.62
29733;BME280;16643;43.158;25.302;2023-08-06T00:55:17;96738.41;;;22.42;80.82
29733;BME280;16643;43.158;25.302;2023-08-06T00:57:43;96739.56;;;22.39;80.67
29733;BME280;16643;43.158;25.302;2023-08-06T01:00:09;96725.97;;;22.34;80.46
29733;BME280;16643;43.158;25.302;2023-08-06T01:02:38;96724.28;;;22.33;80.55
29733;BME280;16643;43.158;25.302;2023-08-06T01:05:03;96762.63;;;22.47;80.39
29733;BME280;16643;43.158;25.302;2023-08-06T01:16:05;96684.59;;;22.16;79.24
29733;BME280;16643;43.158;25.302;2023-08-06T01:18:33;96732.75;;;22.37;79.25
29733;BME280;16643;43.158;25.302;2023-08-06T01:20:59;96716.59;;;22.22;79.42
29733;BME280;16643;43.158;25.302;2023-08-06T01:23:29;96732.63;;;22.46;79.21
29733;BME280;16643;43.158;25.302;2023-08-06T01:26:19;96746.47;;;22.58;78.89
29733;BME280;16643;43.158;25.302;2023-08-06T01:28:58;96747.16;;;22.60;79.02
29733;BME280;16643;43.158;25.302;2023-08-06T01:31:29;96732.72;;;22.55;78.27
29733;BME280;16643;43.158;25.302;2023-08-06T01:34:02;96737.91;;;22.64;78.19
29733;BME280;16643;43.158;25.302;2023-08-06T01:36:30;96626.81;;;21.93;77.89
29733;BME280;16643;43.158;25.302;2023-08-06T01:38:55;96667.41;;;22.20;78.05
29733;BME280;16643;43.158;25.302;2023-08-06T01:41:22;96734.88;;;22.59;78.07
29733;BME280;16643;43.158;25.302;2023-08-06T01:43:48;96689.47;;;22.28;77.81
29733;BME280;16643;43.158;25.302;2023-08-06T01:46:14;96726.22;;;22.49;77.70
29733;BME280;16643;43.158;25.302;2023-08-06T01:48:40;96671.25;;;22.25;77.54
29733;BME280;16643;43.158;25.302;2023-08-06T01:51:06;96672.47;;;22.31;77.84
29733;BME280;16643;43.158;25.302;2023-08-06T01:53:32;96710.72;;;22.36;78.34
29733;BME280;16643;43.158;25.302;2023-08-06T01:55:58;96686.69;;;22.30;77.89
29733;BME280;16643;43.158;25.302;2023-08-06T01:58:25;96704.81;;;22.42;78.01
29733;BME280;16643;43.158;25.302;2023-08-06T02:00:50;96673.75;;;22.27;77.88
29733;BME280;16643;43.158;25.302;2023-08-06T02:03:16;96712.13;;;22.49;77.84
29733;BME280;16643;43.158;25.302;2023-08-06T02:05:42;96658.75;;;22.09;77.69
29733;BME280;16643;43.158;25.302;2023-08-06T02:08:07;96684.44;;;22.17;77.94
29733;BME280;16643;43.158;25.302;2023-08-06T02:10:33;96684.97;;;22.21;78.55
29733;BME280;16643;43.158;25.302;2023-08-06T02:12:59;96692.91;;;22.03;78.49
29733;BME280;16643;43.158;25.302;2023-08-06T02:15:29;96697.88;;;22.24;78.43
29733;BME280;16643;43.158;25.302;2023-08-06T02:17:54;96720.19;;;22.39;78.97
29733;BME280;16643;43.158;25.302;2023-08-06T02:20:20;96743.03;;;22.40;78.01
29733;BME280;16643;43.158;25.302;2023-08-06T02:22:46;96729.09;;;22.38;78.53
29733;BME280;16643;43.158;25.302;2023-08-06T02:25:12;96714.19;;;22.37;78.37
29733;BME280;16643;43.158;25.302;2023-08-06T02:27:37;96676.78;;;22.14;78.25
29733;BME280;16643;43.158;25.302;2023-08-06T02:30:04;96669.75;;;22.23;78.04
29733;BME280;16643;43.158;25.302;2023-08-06T02:32:30;96715.03;;;22.37;78.19
29733;BME280;16643;43.158;25.302;2023-08-06T02:34:57;96695.91;;;22.26;78.22
29733;BME280;16643;43.158;25.302;2023-08-06T02:37:23;96697.13;;;22.31;78.46
29733;BME280;16643;43.158;25.302;2023-08-06T02:39:48;96679.72;;;22.29;78.55
29733;BME280;16643;43.158;25.302;2023-08-06T02:42:14;96733.03;;;22.52;78.42
29733;BME280;16643;43.158;25.302;2023-08-06T02:44:40;96712.78;;;22.25;78.42
29733;BME280;16643;43.158;25.302;2023-08-06T02:47:06;96679.16;;;21.99;78.89
29733;BME280;16643;43.158;25.302;2023-08-06T02:49:35;96746.53;;;22.23;79.42
29733;BME280;16643;43.158;25.302;2023-08-06T02:52:01;96654.22;;;21.66;78.97
29733;BME280;16643;43.158;25.302;2023-08-06T02:54:27;96688.78;;;22.00;79.45
29733;BME280;16643;43.158;25.302;2023-08-06T02:56:53;96696.66;;;21.83;79.52
29733;BME280;16643;43.158;25.302;2023-08-06T02:59:18;96686.03;;;21.74;80.14
29733;BME280;16643;43.158;25.302;2023-08-06T03:01:44;96703.34;;;21.87;80.28
29733;BME280;16643;43.158;25.302;2023-08-06T03:04:10;96671.81;;;21.76;80.29
29733;BME280;16643;43.158;25.302;2023-08-06T03:06:36;96706.19;;;21.93;79.47
29733;BME280;16643;43.158;25.302;2023-08-06T03:09:02;96659.03;;;21.71;79.85
29733;BME280;16643;43.158;25.302;2023-08-06T03:11:27;96698.53;;;22.00;79.15
29733;BME280;16643;43.158;25.302;2023-08-06T03:13:54;96703.94;;;21.81;80.60
29733;BME280;16643;43.158;25.302;2023-08-06T03:16:19;96673.44;;;21.59;80.96
29733;BME280;16643;43.158;25.302;2023-08-06T03:18:45;96639.44;;;21.46;81.68
29733;BME280;16643;43.158;25.302;2023-08-06T03:21:11;96684.34;;;21.91;80.66
29733;BME280;16643;43.158;25.302;2023-08-06T03:23:37;96657.44;;;21.60;79.72
29733;BME280;16643;43.158;25.302;2023-08-06T03:26:03;96657.72;;;21.57;79.80
29733;BME280;16643;43.158;25.302;2023-08-06T03:28:29;96660.91;;;21.79;79.12
29733;BME280;16643;43.158;25.302;2023-08-06T03:31:01;96670.91;;;21.85;78.83
29733;BME280;16643;43.158;25.302;2023-08-06T03:33:27;96661.81;;;21.69;78.23
29733;BME280;16643;43.158;25.302;2023-08-06T03:35:53;96684.41;;;21.82;78.87
29733;BME280;16643;43.158;25.302;2023-08-06T03:38:19;96696.81;;;21.81;78.58
29733;BME280;16643;43.158;25.302;2023-08-06T03:40:48;96665.44;;;21.51;78.54
29733;BME280;16643;43.158;25.302;2023-08-06T03:43:15;96665.69;;;21.75;78.54
29733;BME280;16643;43.158;25.302;2023-08-06T03:45:41;96722.28;;;22.09;78.44
29733;BME280;16643;43.158;25.302;2023-08-06T03:48:11;96654.03;;;21.86;78.09
29733;BME280;16643;43.158;25.302;2023-08-06T03:50:37;96700.09;;;22.11;78.77
29733;BME280;16643;43.158;25.302;2023-08-06T03:53:03;96686.69;;;21.94;77.34
29733;BME280;16643;43.158;25.302;2023-08-06T03:55:29;96686.69;;;-142.82;78.17
29733;BME280;16643;43.158;25.302;2023-08-06T03:57:54;96698.47;;;22.35;77.52
29733;BME280;16643;43.158;25.302;2023-08-06T04:00:20;96702.28;;;22.33;75.84
29733;BME280;16643;43.158;25.302;2023-08-06T04:02:46;96702.28;;;-142.82;76.15
29733;BME280;16643;43.158;25.302;2023-08-06T04:05:13;96723.22;;;22.44;77.34
29733;BME280;16643;43.158;25.302;2023-08-06T04:07:39;96711.94;;;22.42;76.37
29733;BME280;16643;43.158;25.302;2023-08-06T04:10:05;96746.03;;;22.63;76.19
29733;BME280;16643;43.158;25.302;2023-08-06T04:12:34;96724.88;;;22.45;75.58
29733;BME280;16643;43.158;25.302;2023-08-06T04:15:02;96701.50;;;22.40;76.34
29733;BME280;16643;43.158;25.302;2023-08-06T04:17:28;96667.88;;;22.15;75.99
29733;BME280;16643;43.158;25.302;2023-08-06T04:19:55;96738.41;;;22.42;76.51
29733;BME280;16643;43.158;25.302;2023-08-06T04:22:28;96729.41;;;22.35;77.19
29733;BME280;16643;43.158;25.302;2023-08-06T04:24:53;96682.66;;;22.00;77.51
29733;BME280;16643;43.158;25.302;2023-08-06T04:27:19;96695.66;;;22.11;77.27
29733;BME280;16643;43.158;25.302;2023-08-06T04:29:46;96725.56;;;22.29;77.03
29733;BME280;16643;43.158;25.302;2023-08-06T04:32:12;96687.22;;;22.16;77.13
29733;BME280;16643;43.158;25.302;2023-08-06T04:34:42;96697.63;;;22.35;77.28
29733;BME280;16643;43.158;25.302;2023-08-06T04:37:08;96689.91;;;22.41;76.58
29733;BME280;16643;43.158;25.302;2023-08-06T04:39:34;96688.53;;;22.55;76.16
29733;BME280;16643;43.158;25.302;2023-08-06T04:41:59;96694.06;;;22.70;76.11
29733;BME280;16643;43.158;25.302;2023-08-06T04:44:25;96688.09;;;22.94;75.68
29733;BME280;16643;43.158;25.302;2023-08-06T04:46:51;96672.41;;;23.00;74.87
29733;BME280;16643;43.158;25.302;2023-08-06T04:49:17;96673.09;;;23.10;74.71
29733;BME280;16643;43.158;25.302;2023-08-06T04:51:43;96685.09;;;23.31;74.03
29733;BME280;16643;43.158;25.302;2023-08-06T04:54:09;96653.25;;;23.23;72.68
29733;BME280;16643;43.158;25.302;2023-08-06T04:56:36;87186.00;;;-142.82;72.68
29733;BME280;16643;43.158;25.302;2023-08-06T04:59:03;96654.63;;;23.43;73.41
29733;BME280;16643;43.158;25.302;2023-08-06T05:01:38;96637.53;;;23.37;72.55
29733;BME280;16643;43.158;25.302;2023-08-06T05:04:04;96677.47;;;23.70;72.36
29733;BME280;16643;43.158;25.302;2023-08-06T05:06:30;96575.00;;;23.02;71.77
29733;BME280;16643;43.158;25.302;2023-08-06T05:08:56;96619.16;;;23.36;72.38
29733;BME280;16643;43.158;25.302;2023-08-06T05:11:24;96683.03;;;23.50;72.41
29733;BME280;16643;43.158;25.302;2023-08-06T05:13:49;96685.22;;;23.63;72.42
29733;BME280;16643;43.158;25.302;2023-08-06T05:16:15;96691.94;;;23.41;73.34
29733;BME280;16643;43.158;25.302;2023-08-06T05:18:41;96684.94;;;23.24;74.31
29733;BME280;16643;43.158;25.302;2023-08-06T05:21:07;96619.63;;;22.81;74.98
29733;BME280;16643;43.158;25.302;2023-08-06T05:23:32;96647.38;;;23.03;74.89
29733;BME280;16643;43.158;25.302;2023-08-06T05:25:58;96690.56;;;23.29;75.50
29733;BME280;16643;43.158;25.302;2023-08-06T05:28:25;96668.72;;;23.43;74.68
29733;BME280;16643;43.158;25.302;2023-08-06T05:30:50;96666.47;;;23.57;74.12
29733;BME280;16643;43.158;25.302;2023-08-06T05:33:16;96664.69;;;23.81;74.16
29733;BME280;16643;43.158;25.302;2023-08-06T05:35:41;96658.88;;;23.94;73.14
29733;BME280;16643;43.158;25.302;2023-08-06T05:38:07;96636.66;;;23.87;72.19
29733;BME280;16643;43.158;25.302;2023-08-06T05:40:34;96638.31;;;23.88;73.00
29733;BME280;16643;43.158;25.302;2023-08-06T05:42:59;96644.25;;;23.82;73.44
29733;BME280;16643;43.158;25.302;2023-08-06T05:45:25;96639.88;;;23.48;74.10
29733;BME280;16643;43.158;25.302;2023-08-06T05:47:50;96660.34;;;23.64;74.87
29733;BME280;16643;43.158;25.302;2023-08-06T05:50:16;96627.31;;;23.50;74.84
29733;BME280;16643;43.158;25.302;2023-08-06T05:52:42;96680.47;;;24.07;75.06
29733;BME280;16643;43.158;25.302;2023-08-06T05:55:09;96665.00;;;23.95;74.18
29733;BME280;16643;43.158;25.302;2023-08-06T05:57:34;96631.00;;;23.74;74.61
29733;BME280;16643;43.158;25.302;2023-08-06T06:00:06;96610.25;;;23.61;74.92
29733;BME280;16643;43.158;25.302;2023-08-06T06:02:37;96627.34;;;23.83;74.98
29733;BME280;16643;43.158;25.302;2023-08-06T06:05:09;96638.47;;;23.78;74.81
29733;BME280;16643;43.158;25.302;2023-08-06T06:07:37;96611.25;;;23.76;74.66
29733;BME280;16643;43.158;25.302;2023-08-06T06:10:10;96696.44;;;24.23;74.07
29733;BME280;16643;43.158;25.302;2023-08-06T06:12:40;96560.31;;;23.73;72.54
29733;BME280;16643;43.158;25.302;2023-08-06T06:15:07;96664.22;;;24.35;72.72
29733;BME280;16643;43.158;25.302;2023-08-06T06:17:34;96574.72;;;24.11;71.99
29733;BME280;16643;43.158;25.302;2023-08-06T06:20:01;96572.22;;;24.17;71.51
29733;BME280;16643;43.158;25.302;2023-08-06T06:22:30;96615.88;;;24.47;71.43
29733;BME280;16643;43.158;25.302;2023-08-06T06:24:59;96632.53;;;24.88;70.77
29733;BME280;16643;43.158;25.302;2023-08-06T06:27:26;96634.50;;;24.94;70.36
29733;BME280;16643;43.158;25.302;2023-08-06T06:29:51;96677.63;;;25.52;70.48
29733;BME280;16643;43.158;25.302;2023-08-06T06:32:20;96672.63;;;25.88;69.56
29733;BME280;16643;43.158;25.302;2023-08-06T06:34:48;96646.88;;;25.80;68.00
29733;BME280;16643;43.158;25.302;2023-08-06T06:37:14;96608.84;;;25.72;67.55
29733;BME280;16643;43.158;25.302;2023-08-06T06:39:40;96617.00;;;25.93;66.73
29733;BME280;16643;43.158;25.302;2023-08-06T06:42:06;96661.97;;;26.33;66.00
29733;BME280;16643;43.158;25.302;2023-08-06T06:44:32;96689.00;;;26.45;66.05
29733;BME280;16643;43.158;25.302;2023-08-06T06:47:01;96617.81;;;25.93;66.86
29733;BME280;16643;43.158;25.302;2023-08-06T06:49:27;96626.25;;;25.97;67.19
29733;BME280;16643;43.158;25.302;2023-08-06T06:51:54;96649.38;;;26.19;68.05
29733;BME280;16643;43.158;25.302;2023-08-06T06:54:39;96637.28;;;26.17;68.90
29733;BME280;16643;43.158;25.302;2023-08-06T06:57:06;96610.41;;;26.03;67.91
29733;BME280;16643;43.158;25.302;2023-08-06T06:59:31;96642.66;;;26.31;67.04
29733;BME280;16643;43.158;25.302;2023-08-06T07:01:59;96684.91;;;26.87;67.72
29733;BME280;16643;43.158;25.302;2023-08-06T07:04:32;96609.25;;;26.21;66.88
29733;BME280;16643;43.158;25.302;2023-08-06T07:06:57;96664.03;;;26.61;67.38
29733;BME280;16643;43.158;25.302;2023-08-06T07:09:23;96648.81;;;26.32;67.31
29733;BME280;16643;43.158;25.302;2023-08-06T07:11:50;96703.13;;;26.68;67.37
29733;BME280;16643;43.158;25.302;2023-08-06T07:14:28;96614.56;;;26.06;68.47
29733;BME280;16643;43.158;25.302;2023-08-06T07:16:56;96641.28;;;26.35;68.98
29733;BME280;16643;43.158;25.302;2023-08-06T07:19:24;96641.22;;;26.21;68.62
29733;BME280;16643;43.158;25.302;2023-08-06T07:21:51;96686.50;;;26.06;69.40
29733;BME280;16643;43.158;25.302;2023-08-06T07:24:16;96683.00;;;26.06;68.74
29733;BME280;16643;43.158;25.302;2023-08-06T07:26:43;96706.31;;;26.03;69.96
29733;BME280;16643;43.158;25.302;2023-08-06T07:29:18;96704.03;;;25.70;70.74
29733;BME280;16643;43.158;25.302;2023-08-06T07:31:47;96707.38;;;25.72;71.08
29733;BME280;16643;43.158;25.302;2023-08-06T07:34:12;96718.63;;;25.43;71.99
29733;BME280;16643;43.158;25.302;2023-08-06T07:36:43;96705.44;;;25.10;72.96
29733;BME280;16643;43.158;25.302;2023-08-06T07:39:09;96736.81;;;25.23;73.23
29733;BME280;16643;43.158;25.302;2023-08-06T07:41:37;96720.41;;;25.11;74.13
29733;BME280;16643;43.158;25.302;2023-08-06T07:44:02;96693.56;;;24.66;74.41
29733;BME280;16643;43.158;25.302;2023-08-06T07:46:30;96755.34;;;24.84;75.72
29733;BME280;16643;43.158;25.302;2023-08-06T07:48:58;96720.81;;;24.51;76.30
29733;BME280;16643;43.158;25.302;2023-08-06T07:51:24;96760.50;;;24.77;76.72
29733;BME280;16643;43.158;25.302;2023-08-06T07:53:49;96781.31;;;24.57;78.20
29733;BME280;16643;43.158;25.302;2023-08-06T07:56:16;96817.66;;;24.41;79.41
29733;BME280;16643;43.158;25.302;2023-08-06T07:58:41;96797.81;;;24.19;82.11
29733;BME280;16643;43.158;25.302;2023-08-06T08:01:07;96767.41;;;23.97;84.52
29733;BME280;16643;43.158;25.302;2023-08-06T08:03:33;96816.97;;;24.22;84.12
29733;BME280;16643;43.158;25.302;2023-08-06T08:05:58;96770.06;;;23.97;88.37
29733;BME280;16643;43.158;25.302;2023-08-06T08:08:24;96748.38;;;23.51;91.08
29733;BME280;16643;43.158;25.302;2023-08-06T08:10:50;96711.22;;;23.51;92.63
29733;BME280;16643;43.158;25.302;2023-08-06T08:13:16;96709.31;;;23.70;94.81
29733;BME280;16643;43.158;25.302;2023-08-06T08:15:41;96708.13;;;23.72;95.96
29733;BME280;16643;43.158;25.302;2023-08-06T08:18:07;96653.81;;;23.42;98.89
29733;BME280;16643;43.158;25.302;2023-08-06T08:20:35;96643.31;;;23.25;99.77
29733;BME280;16643;43.158;25.302;2023-08-06T08:23:01;96630.28;;;22.97;100.00
29733;BME280;16643;43.158;25.302;2023-08-06T08:25:28;96657.03;;;23.12;100.00
29733;BME280;16643;43.158;25.302;2023-08-06T08:27:54;96649.97;;;22.61;100.00
29733;BME280;16643;43.158;25.302;2023-08-06T08:30:21;96679.00;;;22.70;100.00
29733;BME280;16643;43.158;25.302;2023-08-06T08:32:48;96666.38;;;22.38;100.00
29733;BME280;16643;43.158;25.302;2023-08-06T08:35:14;96693.94;;;22.45;100.00
29733;BME280;16643;43.158;25.302;2023-08-06T08:37:41;96673.34;;;22.39;100.00
29733;BME280;16643;43.158;25.302;2023-08-06T08:40:08;96716.97;;;22.53;100.00
29733;BME280;16643;43.158;25.302;2023-08-06T08:42:35;96732.81;;;22.71;100.00
29733;BME280;16643;43.158;25.302;2023-08-06T08:45:04;96672.69;;;22.71;100.00
29733;BME280;16643;43.158;25.302;2023-08-06T08:47:30;96628.19;;;22.49;100.00
29733;BME280;16643;43.158;25.302;2023-08-06T08:49:57;96630.31;;;22.71;100.00
29733;BME280;16643;43.158;25.302;2023-08-06T08:52:25;96660.34;;;22.80;100.00
29733;BME280;16643;43.158;25.302;2023-08-06T08:54:51;96674.75;;;23.11;100.00
29733;BME280;16643;43.158;25.302;2023-08-06T08:57:18;96646.72;;;23.01;100.00
29733;BME280;16643;43.158;25.302;2023-08-06T08:59:44;96624.13;;;22.89;100.00
29733;BME280;16643;43.158;25.302;2023-08-06T09:02:12;96636.00;;;22.76;100.00
29733;BME280;16643;43.158;25.302;2023-08-06T09:04:39;96683.75;;;22.85;100.00
29733;BME280;16643;43.158;25.302;2023-08-06T09:07:08;96638.75;;;22.41;100.00
29733;BME280;16643;43.158;25.302;2023-08-06T09:09:39;96704.75;;;22.78;100.00
29733;BME280;16643;43.158;25.302;2023-08-06T09:12:21;96675.88;;;22.75;100.00
29733;BME280;16643;43.158;25.302;2023-08-06T09:14:48;96697.38;;;22.90;100.00
29733;BME280;16643;43.158;25.302;2023-08-06T09:17:14;96687.91;;;22.69;100.00
29733;BME280;16643;43.158;25.302;2023-08-06T09:19:43;96716.78;;;22.72;100.00
29733;BME280;16643;43.158;25.302;2023-08-06T09:22:13;96723.56;;;22.49;100.00
29733;BME280;16643;43.158;25.302;2023-08-06T09:24:41;96722.22;;;22.45;100.00
29733;BME280;16643;43.158;25.302;2023-08-06T09:27:12;96776.16;;;22.62;100.00
29733;BME280;16643;43.158;25.302;2023-08-06T09:29:43;96804.47;;;22.79;100.00
29733;BME280;16643;43.158;25.302;2023-08-06T09:32:09;96802.03;;;22.68;100.00
29733;BME280;16643;43.158;25.302;2023-08-06T09:34:34;96756.66;;;22.27;100.00
29733;BME280;16643;43.158;25.302;2023-08-06T09:37:00;96787.00;;;22.33;100.00
29733;BME280;16643;43.158;25.302;2023-08-06T09:39:29;96826.03;;;22.49;100.00
29733;BME280;16643;43.158;25.302;2023-08-06T09:42:00;96770.66;;;22.20;100.00
29733;BME280;16643;43.158;25.302;2023-08-06T09:44:27;96786.47;;;22.29;100.00
29733;BME280;16643;43.158;25.302;2023-08-06T09:46:57;96799.09;;;22.35;100.00
29733;BME280;16643;43.158;25.302;2023-08-06T09:49:28;96726.06;;;21.80;100.00
29733;BME280;16643;43.158;25.302;2023-08-06T09:51:54;96781.34;;;22.28;100.00
29733;BME280;16643;43.158;25.302;2023-08-06T09:54:25;96724.88;;;21.92;100.00
29733;BME280;16643;43.158;25.302;2023-08-06T09:56:53;96770.97;;;22.17;100.00
29733;BME280;16643;43.158;25.302;2023-08-06T09:59:19;96747.38;;;22.05;100.00
29733;BME280;16643;43.158;25.302;2023-08-06T10:01:45;96789.22;;;22.20;100.00
29733;BME280;16643;43.158;25.302;2023-08-06T10:04:14;96766.88;;;22.04;100.00
29733;BME280;16643;43.158;25.302;2023-08-06T10:09:08;96784.44;;;22.05;100.00
29733;BME280;16643;43.158;25.302;2023-08-06T10:11:36;96796.09;;;22.30;100.00
29733;BME280;16643;43.158;25.302;2023-08-06T10:14:20;96782.91;;;22.38;100.00
29733;BME280;16643;43.158;25.302;2023-08-06T10:16:47;96782.00;;;22.48;100.00
29733;BME280;16643;43.158;25.302;2023-08-06T10:19:13;96744.09;;;22.29;100.00
29733;BME280;16643;43.158;25.302;2023-08-06T10:21:40;96739.50;;;22.14;100.00
29733;BME280;16643;43.158;25.302;2023-08-06T10:24:13;96727.78;;;22.34;100.00
29733;BME280;16643;43.158;25.302;2023-08-06T10:26:40;96705.00;;;22.23;100.00
29733;BME280;16643;43.158;25.302;2023-08-06T10:29:45;96755.16;;;22.42;100.00
29733;BME280;16643;43.158;25.302;2023-08-06T10:32:10;96741.00;;;22.16;100.00
29733;BME280;16643;43.158;25.302;2023-08-06T10:34:58;96783.06;;;22.37;100.00
29733;BME280;16643;43.158;25.302;2023-08-06T10:37:44;96749.38;;;21.94;100.00
29733;BME280;16643;43.158;25.302;2023-08-06T10:40:10;96825.66;;;22.26;100.00
29733;BME280;16643;43.158;25.302;2023-08-06T10:42:37;96818.69;;;22.25;100.00
29733;BME280;16643;43.158;25.302;2023-08-06T10:45:15;96779.06;;;22.15;100.00
29733;BME280;16643;43.158;25.302;2023-08-06T10:47:42;96756.44;;;22.03;100.00
29733;BME280;16643;43.158;25.302;2023-08-06T10:50:12;96792.97;;;22.17;100.00
29733;BME280;16643;43.158;25.302;2023-08-06T10:52:39;96774.59;;;22.16;100.00
29733;BME280;16643;43.158;25.302;2023-08-06T10:55:06;96741.50;;;21.84;100.00
29733;BME280;16643;43.158;25.302;2023-08-06T10:57:45;96702.41;;;21.43;100.00
29733;BME280;16643;43.158;25.302;2023-08-06T11:00:44;96679.09;;;21.28;100.00
29733;BME280;16643;43.158;25.302;2023-08-06T11:03:32;96748.41;;;21.22;100.00
29733;BME280;16643;43.158;25.302;2023-08-06T11:05:58;96772.34;;;21.48;100.00
29733;BME280;16643;43.158;25.302;2023-08-06T11:08:53;96705.91;;;21.33;100.00
29733;BME280;16643;43.158;25.302;2023-08-06T11:11:28;96725.75;;;21.20;100.00
29733;BME280;16643;43.158;25.302;2023-08-06T11:13:59;96797.97;;;21.48;100.00
29733;BME280;16643;43.158;25.302;2023-08-06T11:16:52;96720.41;;;20.92;100.00
29733;BME280;16643;43.158;25.302;2023-08-06T11:19:19;96833.97;;;21.58;100.00
29733;BME280;16643;43.158;25.302;2023-08-06T11:21:45;96760.03;;;20.92;100.00
29733;BME280;16643;43.158;25.302;2023-08-06T11:24:16;96713.09;;;20.77;100.00
29733;BME280;16643;43.158;25.302;2023-08-06T11:26:42;96814.75;;;21.29;100.00
29733;BME280;16643;43.158;25.302;2023-08-06T11:29:10;96741.44;;;21.12;100.00
29733;BME280;16643;43.158;25.302;2023-08-06T11:31:36;96782.16;;;21.65;100.00
29733;BME280;16643;43.158;25.302;2023-08-06T11:34:02;96755.00;;;21.36;100.00
29733;BME280;16643;43.158;25.302;2023-08-06T11:36:36;96772.25;;;21.67;100.00
29733;BME280;16643;43.158;25.302;2023-08-06T11:39:06;96830.25;;;22.24;100.00
29733;BME280;16643;43.158;25.302;2023-08-06T11:41:32;96833.91;;;22.40;100.00
29733;BME280;16643;43.158;25.302;2023-08-06T11:43:59;96770.53;;;21.94;100.00
29733;BME280;16643;43.158;25.302;2023-08-06T11:46:25;96770.34;;;22.05;100.00
29733;BME280;16643;43.158;25.302;2023-08-06T11:48:55;96816.97;;;22.16;100.00
29733;BME280;16643;43.158;25.302;2023-08-06T11:51:25;96828.22;;;22.18;100.00
29733;BME280;16643;43.158;25.302;2023-08-06T11:53:57;96824.00;;;22.25;100.00
29733;BME280;16643;43.158;25.302;2023-08-06T11:56:24;96851.25;;;22.53;100.00
29733;BME280;16643;43.158;25.302;2023-08-06T11:58:51;96792.06;;;22.26;100.00
29733;BME280;16643;43.158;25.302;2023-08-06T12:01:18;96875.56;;;22.66;100.00
29733;BME280;16643;43.158;25.302;2023-08-06T12:03:43;96857.63;;;22.42;100.00
29733;BME280;16643;43.158;25.302;2023-08-06T12:06:09;96782.53;;;22.16;100.00
29733;BME280;16643;43.158;25.302;2023-08-06T12:08:41;96869.19;;;22.94;100.00
29733;BME280;16643;43.158;25.302;2023-08-06T12:11:09;96853.91;;;23.14;100.00
29733;BME280;16643;43.158;25.302;2023-08-06T12:13:35;96793.88;;;22.79;100.00
29733;BME280;16643;43.158;25.302;2023-08-06T12:16:01;96836.81;;;23.08;100.00
29733;BME280;16643;43.158;25.302;2023-08-06T12:18:28;96846.78;;;23.40;100.00
29733;BME280;16643;43.158;25.302;2023-08-06T12:20:53;96759.63;;;23.11;100.00
29733;BME280;16643;43.158;25.302;2023-08-06T12:23:20;96791.03;;;23.58;100.00
29733;BME280;16643;43.158;25.302;2023-08-06T12:25:45;96835.63;;;23.97;100.00
29733;BME280;16643;43.158;25.302;2023-08-06T12:28:11;96835.59;;;23.88;100.00
29733;BME280;16643;43.158;25.302;2023-08-06T12:30:38;72206.53;;;-142.82;100.00
29733;BME280;16643;43.158;25.302;2023-08-06T12:33:07;96845.25;;;24.56;100.00
29733;BME280;16643;43.158;25.302;2023-08-06T12:35:33;96816.66;;;24.74;99.94
29733;BME280;16643;43.158;25.302;2023-08-06T12:37:59;96853.06;;;25.22;93.91
29733;BME280;16643;43.158;25.302;2023-08-06T12:40:25;96802.47;;;25.39;96.62
29733;BME280;16643;43.158;25.302;2023-08-06T12:42:51;96805.28;;;25.45;90.55
29733;BME280;16643;43.158;25.302;2023-08-06T12:45:17;96793.13;;;25.43;89.94
29733;BME280;16643;43.158;25.302;2023-08-06T12:47:46;96804.28;;;25.46;88.59
29733;BME280;16643;43.158;25.302;2023-08-06T12:50:12;96744.22;;;25.05;86.16
29733;BME280;16643;43.158;25.302;2023-08-06T12:52:38;96795.47;;;25.46;89.11
29733;BME280;16643;43.158;25.302;2023-08-06T12:55:04;96762.91;;;25.36;89.80
29733;BME280;16643;43.158;25.302;2023-08-06T12:57:32;96726.97;;;25.31;86.07
29733;BME280;16643;43.158;25.302;2023-08-06T13:00:02;96798.81;;;25.87;84.49